createdAt,value
2019-04-13T00:00:53.520Z,102331.47
2019-04-13T00:03:21.796Z,102330.56
2019-04-13T00:06:00.813Z,102331.03
2019-04-13T00:08:36.591Z,102325.50
2019-04-13T00:11:06.521Z,102324.70
2019-04-13T00:13:34.794Z,102318.29
2019-04-13T00:16:03.461Z,102325.16
2019-04-13T00:18:31.742Z,102324.30
2019-04-13T00:21:00.024Z,102323.38
2019-04-13T00:23:28.291Z,102314.36
2019-04-13T00:25:56.586Z,102312.66
2019-04-13T00:28:24.849Z,102307.09
2019-04-13T00:30:53.140Z,102301.98
2019-04-13T00:33:21.394Z,102305.49
2019-04-13T00:35:50.162Z,102312.33
2019-04-13T00:38:18.437Z,102305.89
2019-04-13T00:40:46.705Z,102304.27
2019-04-13T00:43:15.003Z,102305.61
2019-04-13T00:45:43.274Z,102303.61
2019-04-13T00:48:11.567Z,102300.70
2019-04-13T00:50:39.832Z,102295.53
2019-04-13T00:53:08.101Z,102298.95
2019-04-13T00:55:36.373Z,102296.04
2019-04-13T00:58:04.658Z,102297.93
2019-04-13T01:00:33.011Z,102296.20
2019-04-13T01:03:01.282Z,102290.78
2019-04-13T01:05:29.575Z,102283.55
2019-04-13T01:07:57.852Z,102286.63
2019-04-13T01:10:26.129Z,102287.58
2019-04-13T01:12:54.398Z,102292.66
2019-04-13T01:15:22.669Z,102287.42
2019-04-13T01:17:50.942Z,102289.50
2019-04-13T01:20:19.211Z,102281.84
2019-04-13T01:22:47.486Z,102283.20
2019-04-13T01:25:15.754Z,102280.23
2019-04-13T01:27:44.038Z,102280.17
2019-04-13T01:30:12.548Z,102278.05
2019-04-13T01:32:40.843Z,102282.03
2019-04-13T01:35:09.140Z,102276.03
2019-04-13T01:37:37.411Z,102273.83
2019-04-13T01:40:06.873Z,102276.00
2019-04-13T01:42:35.135Z,102281.61
2019-04-13T01:45:03.405Z,102272.15
2019-04-13T01:47:31.684Z,102266.64
2019-04-13T01:49:59.973Z,102262.79
2019-04-13T01:52:28.236Z,102264.55
2019-04-13T01:54:56.498Z,102266.33
2019-04-13T01:57:24.768Z,102262.09
2019-04-13T01:59:53.081Z,102263.78
2019-04-13T02:02:38.943Z,102262.91
2019-04-13T02:05:18.027Z,102265.53
2019-04-13T02:07:57.273Z,102257.22
2019-04-13T02:10:27.190Z,102260.55
2019-04-13T02:12:55.482Z,102266.52
2019-04-13T02:15:23.808Z,102257.13
2019-04-13T02:17:52.051Z,102265.66
2019-04-13T02:20:20.411Z,102262.59
2019-04-13T02:22:48.697Z,102250.17
2019-04-13T02:25:16.966Z,102257.05
2019-04-13T02:27:45.231Z,102251.12
2019-04-13T02:30:13.628Z,102252.91
2019-04-13T02:32:41.925Z,102249.09
2019-04-13T02:35:10.310Z,102249.54
2019-04-13T02:37:38.605Z,102247.25
2019-04-13T02:40:07.042Z,102248.52
2019-04-13T02:42:35.346Z,102245.95
2019-04-13T02:45:04.553Z,102250.21
2019-04-13T02:47:32.814Z,102244.28
2019-04-13T02:50:01.092Z,102245.62
2019-04-13T02:52:29.354Z,102245.56
2019-04-13T02:54:57.621Z,102246.07
2019-04-13T02:57:25.886Z,102246.09
2019-04-13T02:59:54.176Z,102247.30
2019-04-13T03:02:22.445Z,102241.20
2019-04-13T03:04:50.745Z,102242.07
2019-04-13T03:07:19.001Z,102238.20
2019-04-13T03:09:47.366Z,102252.47
2019-04-13T03:12:15.637Z,102236.09
2019-04-13T03:14:43.920Z,102243.30
2019-04-13T03:17:25.871Z,102239.05
2019-04-13T03:19:58.233Z,102232.62
2019-04-13T03:22:26.498Z,102234.78
2019-04-13T03:24:54.761Z,102236.94
2019-04-13T03:27:23.046Z,102233.04
2019-04-13T03:29:51.320Z,102241.60
2019-04-13T03:32:19.590Z,102238.20
2019-04-13T03:34:47.846Z,102237.86
2019-04-13T03:37:16.127Z,102240.08
2019-04-13T03:39:44.413Z,102234.09
2019-04-13T03:42:12.676Z,102232.50
2019-04-13T03:44:41.305Z,102239.83
2019-04-13T03:47:09.584Z,102232.58
2019-04-13T03:49:37.862Z,102238.58
2019-04-13T03:52:06.136Z,102236.88
2019-04-13T03:54:34.425Z,102232.60
2019-04-13T03:57:02.686Z,102233.89
2019-04-13T03:59:30.968Z,102228.76
2019-04-13T04:01:59.277Z,102229.66
2019-04-13T04:04:27.547Z,102233.13
2019-04-13T04:06:55.810Z,102229.27
2019-04-13T04:09:24.083Z,102237.02
2019-04-13T04:11:52.378Z,102234.86
2019-04-13T04:14:20.654Z,102230.58
2019-04-13T04:16:48.949Z,102231.34
2019-04-13T04:19:17.221Z,102234.75
2019-04-13T04:21:45.517Z,102232.67
2019-04-13T04:24:13.798Z,102236.02
2019-04-13T04:26:42.065Z,102233.41
2019-04-13T04:29:10.387Z,102237.70
2019-04-13T04:31:38.607Z,102236.44
2019-04-13T04:34:06.882Z,102234.33
2019-04-13T04:36:35.162Z,102240.78
2019-04-13T04:39:05.240Z,102239.05
2019-04-13T04:41:33.529Z,102240.31
2019-04-13T04:44:01.798Z,102242.02
2019-04-13T04:46:30.850Z,102243.67
2019-04-13T04:48:59.118Z,102243.22
2019-04-13T04:51:27.389Z,102244.97
2019-04-13T04:53:55.668Z,102241.11
2019-04-13T04:56:23.946Z,102245.38
2019-04-13T04:58:52.216Z,102243.60
2019-04-13T05:01:20.467Z,102246.53
2019-04-13T05:03:48.730Z,102237.57
2019-04-13T05:06:17.019Z,102247.55
2019-04-13T05:08:45.277Z,102241.54
2019-04-13T05:11:13.823Z,102239.02
2019-04-13T05:13:43.051Z,102242.93
2019-04-13T05:16:11.355Z,102243.79
2019-04-13T05:18:39.641Z,102242.88
2019-04-13T05:21:07.915Z,102248.01
2019-04-13T05:23:36.173Z,102245.47
2019-04-13T05:26:04.497Z,102239.90
2019-04-13T05:28:32.780Z,102245.50
2019-04-13T05:31:01.044Z,102241.62
2019-04-13T05:33:29.344Z,102244.19
2019-04-13T05:35:57.629Z,102242.97
2019-04-13T05:38:25.910Z,102252.47
2019-04-13T05:40:54.200Z,102252.48
2019-04-13T05:43:22.472Z,102249.91
2019-04-13T05:45:50.745Z,102250.76
2019-04-13T05:48:19.024Z,102254.69
2019-04-13T05:50:47.298Z,102256.45
2019-04-13T05:53:15.633Z,102261.19
2019-04-13T05:55:43.866Z,102257.20
2019-04-13T05:58:14.369Z,102254.17
2019-04-13T06:00:42.167Z,102260.23
2019-04-13T06:03:10.409Z,102254.67
2019-04-13T06:05:38.688Z,102256.41
2019-04-13T06:08:06.972Z,102260.33
2019-04-13T06:10:35.257Z,102261.66
2019-04-13T06:13:03.560Z,102267.69
2019-04-13T06:15:33.513Z,102271.56
2019-04-13T06:18:03.227Z,102264.25
2019-04-13T06:20:31.849Z,102266.39
2019-04-13T06:23:00.106Z,102267.31
2019-04-13T06:25:30.587Z,102273.77
2019-04-13T06:27:58.468Z,102268.60
2019-04-13T06:30:34.404Z,102266.05
2019-04-13T06:33:07.234Z,102272.06
2019-04-13T06:35:35.515Z,102267.32
2019-04-13T06:38:03.802Z,102267.31
2019-04-13T06:40:32.079Z,102264.75
2019-04-13T06:43:00.342Z,102267.84
2019-04-13T06:45:28.609Z,102268.29
2019-04-13T06:48:00.136Z,102265.27
2019-04-13T06:50:26.871Z,102260.58
2019-04-13T06:52:55.158Z,102260.55
2019-04-13T06:55:23.572Z,102261.42
2019-04-13T06:57:51.856Z,102265.27
2019-04-13T07:00:20.144Z,102262.22
2019-04-13T07:02:49.270Z,102267.41
2019-04-13T07:05:17.541Z,102268.23
2019-04-13T07:07:51.265Z,102269.96
2019-04-13T07:10:30.078Z,102269.98
2019-04-13T07:12:59.793Z,102268.72
2019-04-13T07:15:30.383Z,102270.01
2019-04-13T07:17:59.685Z,102271.73
2019-04-13T07:20:27.957Z,102278.13
2019-04-13T07:22:56.234Z,102269.52
2019-04-13T07:25:24.509Z,102269.96
2019-04-13T07:27:52.778Z,102269.58
2019-04-13T07:30:21.049Z,102270.03
2019-04-13T07:32:49.320Z,102267.05
2019-04-13T07:35:17.631Z,102266.65
2019-04-13T07:37:45.910Z,102265.37
2019-04-13T07:40:14.188Z,102258.03
2019-04-13T07:42:42.467Z,102259.73
2019-04-13T07:45:12.539Z,102252.84
2019-04-13T07:47:54.142Z,102255.02
2019-04-13T07:50:26.723Z,102252.88
2019-04-13T07:52:55.689Z,102253.72
2019-04-13T07:55:23.953Z,102254.17
2019-04-13T07:57:52.201Z,102254.98
2019-04-13T08:00:20.496Z,102247.60
2019-04-13T08:02:48.775Z,102245.81
2019-04-13T08:05:17.034Z,102244.52
2019-04-13T08:07:49.927Z,102238.06
2019-04-13T08:10:15.369Z,102252.30
2019-04-13T08:12:43.629Z,102250.62
2019-04-13T08:15:12.066Z,102250.55
2019-04-13T08:17:40.329Z,102251.84
2019-04-13T08:20:16.374Z,102246.97
2019-04-13T08:22:44.789Z,102239.16
2019-04-13T08:25:13.065Z,102232.62
2019-04-13T08:27:41.330Z,102238.09
2019-04-13T08:30:10.396Z,102228.59
2019-04-13T08:32:38.666Z,102222.98
2019-04-13T08:35:07.269Z,102242.11
2019-04-13T08:37:37.752Z,102239.61
2019-04-13T08:40:09.689Z,102241.73
2019-04-13T08:42:38.378Z,102249.19
2019-04-13T08:45:06.800Z,102243.66
2019-04-13T08:47:35.052Z,102246.16
2019-04-13T08:50:03.803Z,102245.83
2019-04-13T08:52:32.120Z,102267.81
2019-04-13T08:55:00.416Z,102273.12
2019-04-13T08:57:28.720Z,102282.58
2019-04-13T08:59:56.979Z,102288.19
2019-04-13T09:02:25.261Z,102280.44
2019-04-13T09:04:53.552Z,102274.37
2019-04-13T09:07:21.835Z,102270.83
2019-04-13T09:09:50.830Z,102255.36
2019-04-13T09:12:20.380Z,102251.41
2019-04-13T09:14:49.049Z,102262.56
2019-04-13T09:17:19.034Z,102250.91
2019-04-13T09:19:51.796Z,102241.76
2019-04-13T09:22:22.339Z,102249.31
2019-04-13T09:24:52.827Z,102249.31
2019-04-13T09:27:20.637Z,102237.28
2019-04-13T09:29:48.902Z,102226.10
2019-04-13T09:32:17.170Z,102219.83
2019-04-13T09:34:45.446Z,102212.70
2019-04-13T09:37:13.722Z,102205.06
2019-04-13T09:39:41.985Z,102198.21
2019-04-13T09:42:11.274Z,102198.80
2019-04-13T09:44:39.604Z,102204.31
2019-04-13T09:47:12.427Z,102208.24
2019-04-13T09:49:40.721Z,102218.73
2019-04-13T09:52:09.274Z,102235.34
2019-04-13T09:54:37.555Z,102242.11
2019-04-13T09:57:05.820Z,102242.22
2019-04-13T09:59:34.109Z,102240.11
2019-04-13T10:02:02.383Z,102235.25
2019-04-13T10:04:30.640Z,102229.34
2019-04-13T10:06:58.890Z,102208.95
2019-04-13T10:09:27.152Z,102205.73
2019-04-13T10:12:11.821Z,102188.70
2019-04-13T10:14:53.583Z,102183.80
2019-04-13T10:17:27.958Z,102175.73
2019-04-13T10:19:56.263Z,102180.52
2019-04-13T10:22:24.990Z,102167.55
2019-04-13T10:24:53.261Z,102189.58
2019-04-13T10:27:21.525Z,102186.66
2019-04-13T10:29:50.502Z,102180.59
2019-04-13T10:32:18.811Z,102177.06
2019-04-13T10:34:47.090Z,102174.44
2019-04-13T10:37:15.354Z,102183.42
2019-04-13T10:39:46.286Z,102175.61
2019-04-13T10:42:13.632Z,102156.55
2019-04-13T10:44:49.204Z,102164.98
2019-04-13T10:47:28.092Z,102155.19
2019-04-13T10:50:07.385Z,102155.23
2019-04-13T10:52:34.822Z,102147.08
2019-04-13T10:55:03.357Z,102150.30
2019-04-13T10:57:31.634Z,102151.63
2019-04-13T10:59:59.908Z,102143.50
2019-04-13T11:02:28.192Z,102158.45
2019-04-13T11:04:56.462Z,102157.03
2019-04-13T11:07:24.738Z,102165.41
2019-04-13T11:09:53.017Z,102172.05
2019-04-13T11:12:21.271Z,102184.14
2019-04-13T11:14:49.541Z,102181.38
2019-04-13T11:17:17.805Z,102176.41
2019-04-13T11:19:46.076Z,102160.14
2019-04-13T11:22:14.344Z,102145.52
2019-04-13T11:24:42.620Z,102144.49
2019-04-13T11:27:11.259Z,102134.80
2019-04-13T11:29:39.524Z,102135.88
2019-04-13T11:32:07.773Z,102124.30
2019-04-13T11:34:36.062Z,102101.75
2019-04-13T11:37:05.712Z,102110.42
2019-04-13T11:39:37.243Z,102105.87
2019-04-13T11:42:05.821Z,102101.64
2019-04-13T11:44:38.623Z,102101.52
2019-04-13T11:47:24.899Z,102110.03
2019-04-13T11:49:56.584Z,102103.83
2019-04-13T11:52:23.174Z,102119.73
2019-04-13T11:54:51.456Z,102119.73
2019-04-13T11:57:19.719Z,102125.24
2019-04-13T11:59:48.013Z,102114.46
2019-04-13T12:02:17.936Z,102125.75
2019-04-13T12:04:53.875Z,102130.11
2019-04-13T12:07:32.293Z,102132.36
2019-04-13T12:10:03.619Z,102130.41
2019-04-13T12:12:33.698Z,102122.91
2019-04-13T12:15:15.296Z,102129.02
2019-04-13T12:18:01.174Z,102117.33
2019-04-13T12:20:31.325Z,102125.41
2019-04-13T12:23:00.042Z,102119.70
2019-04-13T12:25:28.294Z,102104.41
2019-04-13T12:27:56.687Z,102105.88
2019-04-13T12:30:32.321Z,102099.11
2019-04-13T12:33:00.652Z,102102.11
2019-04-13T12:35:28.891Z,102077.40
2019-04-13T12:37:57.156Z,102077.24
2019-04-13T12:40:34.789Z,102086.43
2019-04-13T12:43:02.496Z,102092.71
2019-04-13T12:45:31.341Z,102091.31
2019-04-13T12:47:59.638Z,102081.89
2019-04-13T12:50:27.923Z,102061.84
2019-04-13T12:52:56.186Z,102063.41
2019-04-13T12:55:24.491Z,102069.00
2019-04-13T12:57:52.757Z,102082.70
2019-04-13T13:00:25.399Z,102108.48
2019-04-13T13:02:57.262Z,102116.25
2019-04-13T13:05:32.630Z,102131.16
2019-04-13T13:08:01.495Z,102149.70
2019-04-13T13:10:29.779Z,102145.60
2019-04-13T13:12:58.430Z,102135.11
2019-04-13T13:15:26.851Z,102121.56
2019-04-13T13:17:55.264Z,102114.95
2019-04-13T13:20:23.522Z,102091.22
2019-04-13T13:22:52.054Z,102103.42
2019-04-13T13:25:21.905Z,102088.00
2019-04-13T13:27:50.285Z,102087.52
2019-04-13T13:30:19.919Z,102086.27
2019-04-13T13:32:48.539Z,102119.45
2019-04-13T13:35:16.818Z,102131.89
2019-04-13T13:37:45.106Z,102133.16
2019-04-13T13:40:17.097Z,102139.91
2019-04-13T13:42:43.453Z,102136.09
2019-04-13T13:45:11.809Z,102137.20
2019-04-13T13:47:40.080Z,102121.13
2019-04-13T13:50:08.516Z,102103.47
2019-04-13T13:52:38.054Z,102092.41
2019-04-13T13:55:07.556Z,102100.48
2019-04-13T13:57:37.545Z,102082.62
2019-04-13T14:00:08.920Z,102094.39
2019-04-13T14:02:37.228Z,102102.81
2019-04-13T14:05:06.649Z,102099.44
2019-04-13T14:07:35.088Z,102099.70
2019-04-13T14:10:11.248Z,102109.73
2019-04-13T14:12:41.947Z,102108.80
2019-04-13T14:15:11.810Z,102112.28
2019-04-13T14:17:40.164Z,102115.06
2019-04-13T14:20:08.987Z,102117.61
2019-04-13T14:22:37.257Z,102113.16
2019-04-13T14:25:05.991Z,102113.20
2019-04-13T14:27:34.267Z,102113.95
2019-04-13T14:30:02.731Z,102118.61
2019-04-13T14:32:31.154Z,102094.78
2019-04-13T14:34:59.408Z,102098.45
2019-04-13T14:37:27.676Z,102112.52
2019-04-13T14:39:56.151Z,102112.78
2019-04-13T14:42:24.467Z,102110.15
2019-04-13T14:44:54.865Z,102108.52
2019-04-13T14:47:22.726Z,102091.52
2019-04-13T14:49:51.006Z,102092.44
2019-04-13T14:52:19.310Z,102092.44
2019-04-13T14:54:49.954Z,102085.38
2019-04-13T14:57:17.571Z,102077.21
2019-04-13T14:59:49.278Z,102083.74
2019-04-13T15:02:15.823Z,102076.42
2019-04-13T15:04:44.075Z,102077.86
2019-04-13T15:07:12.357Z,102073.07
2019-04-13T15:09:40.632Z,102080.38
2019-04-13T15:12:09.410Z,102072.64
2019-04-13T15:14:39.090Z,102068.56
2019-04-13T15:17:08.276Z,102068.27
2019-04-13T15:19:50.351Z,102070.96
2019-04-13T15:22:10.632Z,102072.20
2019-04-13T15:24:37.275Z,102072.98
2019-04-13T15:27:07.696Z,102074.70
2019-04-13T15:29:36.865Z,102075.54
2019-04-13T15:32:06.431Z,102085.53
2019-04-13T15:34:37.528Z,102087.25
2019-04-13T15:37:07.067Z,102088.16
2019-04-13T15:39:40.144Z,102083.84
2019-04-13T15:42:12.401Z,102098.17
2019-04-13T15:44:34.847Z,102100.20
2019-04-13T15:47:10.110Z,102092.13
2019-04-13T15:49:36.260Z,102094.49
2019-04-13T15:52:05.720Z,102084.22
2019-04-13T15:54:35.043Z,102075.27
2019-04-13T15:57:03.654Z,102073.24
2019-04-13T15:59:33.025Z,102086.29
2019-04-13T16:02:01.649Z,102084.97
2019-04-13T16:04:31.022Z,102073.65
2019-04-13T16:07:00.919Z,102077.15
2019-04-13T16:09:37.107Z,102090.33
2019-04-13T16:12:10.568Z,102091.16
2019-04-13T16:14:39.849Z,102092.98
2019-04-13T16:17:08.128Z,102107.98
2019-04-13T16:19:37.339Z,102107.22
2019-04-13T16:22:05.630Z,102114.09
2019-04-13T16:24:35.043Z,102115.67
2019-04-13T16:27:03.592Z,102125.14
2019-04-13T16:29:48.965Z,102122.58
2019-04-13T16:32:21.321Z,102122.72
2019-04-13T16:34:55.005Z,102121.91
2019-04-13T16:37:31.900Z,102124.98
2019-04-13T16:40:00.215Z,102121.98
2019-04-13T16:42:31.233Z,102121.13
2019-04-13T16:45:07.536Z,102125.84
2019-04-13T16:47:37.586Z,102133.31
2019-04-13T16:50:20.257Z,102125.77
2019-04-13T16:52:50.875Z,102128.36
2019-04-13T16:55:20.831Z,102118.84
2019-04-13T16:57:56.690Z,102124.55
2019-04-13T17:00:34.798Z,102112.05
2019-04-13T17:03:20.742Z,102122.01
2019-04-13T17:05:50.144Z,102128.16
2019-04-13T17:08:19.521Z,102138.98
2019-04-13T17:10:47.958Z,102132.67
2019-04-13T17:13:16.275Z,102132.67
2019-04-13T17:15:44.549Z,102136.01
2019-04-13T17:18:18.735Z,102139.44
2019-04-13T17:20:46.170Z,102143.33
2019-04-13T17:23:19.298Z,102140.73
2019-04-13T17:26:06.561Z,102143.42
2019-04-13T17:28:53.687Z,102145.17
2019-04-13T17:31:30.634Z,102139.56
2019-04-13T17:34:09.348Z,102142.59
2019-04-13T17:36:39.870Z,102146.04
2019-04-13T17:39:08.732Z,102145.22
2019-04-13T17:41:44.743Z,102143.16
2019-04-13T17:44:14.663Z,102136.28
2019-04-13T17:46:59.470Z,102150.13
2019-04-13T17:49:45.232Z,102145.37
2019-04-13T17:52:15.450Z,102140.70
2019-04-13T17:54:46.054Z,102147.69
2019-04-13T17:57:16.401Z,102148.13
2019-04-13T17:59:48.817Z,102141.22
2019-04-13T18:02:18.738Z,102147.25
2019-04-13T18:05:04.879Z,102154.59
2019-04-13T18:07:34.952Z,102158.97
2019-04-13T18:10:23.575Z,102158.56
2019-04-13T18:13:04.139Z,102159.41
2019-04-13T18:15:36.910Z,102157.19
2019-04-13T18:18:08.103Z,102170.20
2019-04-13T18:20:36.587Z,102164.17
2019-04-13T18:23:04.849Z,102170.68
2019-04-13T18:25:40.405Z,102178.44
2019-04-13T18:28:04.166Z,102174.97
2019-04-13T18:30:36.104Z,102179.72
2019-04-13T18:33:03.183Z,102176.28
2019-04-13T18:35:31.420Z,102174.17
2019-04-13T18:37:59.759Z,102177.22
2019-04-13T18:40:28.705Z,102186.71
2019-04-13T18:43:06.794Z,102182.81
2019-04-13T18:45:27.037Z,102184.55
2019-04-13T18:47:55.651Z,102194.47
2019-04-13T18:50:24.669Z,102193.61
2019-04-13T18:52:53.130Z,102191.45
2019-04-13T18:55:22.315Z,102197.92
2019-04-13T18:57:50.600Z,102199.63
2019-04-13T19:00:19.931Z,102206.13
2019-04-13T19:02:48.187Z,102207.83
2019-04-13T19:05:16.458Z,102211.23
2019-04-13T19:07:44.744Z,102204.34
2019-04-13T19:10:13.118Z,102209.55
2019-04-13T19:12:41.440Z,102213.39
2019-04-13T19:15:10.410Z,102205.61
2019-04-13T19:17:38.745Z,102209.56
2019-04-13T19:20:08.270Z,102209.56
2019-04-13T19:22:36.562Z,102218.19
2019-04-13T19:25:06.494Z,102220.36
2019-04-13T19:27:34.859Z,102216.91
2019-04-13T19:30:04.111Z,102216.06
2019-04-13T19:32:32.398Z,102217.84
2019-04-13T19:35:00.941Z,102215.25
2019-04-13T19:37:29.257Z,102217.84
2019-04-13T19:39:57.531Z,102219.94
2019-04-13T19:42:25.892Z,102219.13
2019-04-13T19:44:54.198Z,102227.31
2019-04-13T19:47:22.589Z,102218.27
2019-04-13T19:49:50.880Z,102223.89
2019-04-13T19:52:26.716Z,102222.16
2019-04-13T19:54:55.005Z,102228.20
2019-04-13T19:57:23.273Z,102220.86
2019-04-13T19:59:51.563Z,102220.44
2019-04-13T20:02:21.478Z,102225.19
2019-04-13T20:04:49.758Z,102228.20
2019-04-13T20:07:18.023Z,102228.67
2019-04-13T20:09:46.287Z,102231.27
2019-04-13T20:12:14.585Z,102231.70
2019-04-13T20:14:43.804Z,102229.55
2019-04-13T20:17:12.142Z,102232.56
2019-04-13T20:19:40.404Z,102236.01
2019-04-13T20:22:08.684Z,102244.20
2019-04-13T20:24:36.959Z,102236.05
2019-04-13T20:27:06.572Z,102235.61
2019-04-13T20:29:36.006Z,102243.80
2019-04-13T20:32:04.328Z,102232.59
2019-04-13T20:34:33.574Z,102234.28
2019-04-13T20:37:02.062Z,102232.16
2019-04-13T20:39:32.977Z,102239.50
2019-04-13T20:42:08.790Z,102230.88
2019-04-13T20:44:32.353Z,102229.18
2019-04-13T20:47:00.609Z,102231.77
2019-04-13T20:49:28.860Z,102239.95
2019-04-13T20:51:57.126Z,102234.75
2019-04-13T20:54:25.437Z,102237.36
2019-04-13T20:56:53.686Z,102237.79
2019-04-13T20:59:21.958Z,102240.34
2019-04-13T21:01:50.235Z,102242.94
2019-04-13T21:04:19.435Z,102241.67
2019-04-13T21:06:47.859Z,102245.12
2019-04-13T21:09:16.218Z,102244.69
2019-04-13T21:11:45.664Z,102240.37
2019-04-13T21:14:23.112Z,102243.84
2019-04-13T21:16:45.189Z,102241.23
2019-04-13T21:19:13.507Z,102246.40
2019-04-13T21:21:43.041Z,102254.59
2019-04-13T21:24:11.395Z,102252.87
2019-04-13T21:26:39.636Z,102246.39
2019-04-13T21:29:08.917Z,102254.58
2019-04-13T21:31:37.353Z,102250.70
2019-04-13T21:34:05.599Z,102254.58
2019-04-13T21:36:34.952Z,102258.91
2019-04-13T21:39:04.907Z,102258.46
2019-04-13T21:41:33.139Z,102254.99
2019-04-13T21:44:15.628Z,102254.55
2019-04-13T21:46:31.658Z,102256.72
2019-04-13T21:49:01.206Z,102249.80
2019-04-13T21:51:31.245Z,102244.64
2019-04-13T21:54:01.774Z,102245.92
2019-04-13T21:56:31.376Z,102242.91
2019-04-13T21:59:00.092Z,102243.77
2019-04-13T22:01:43.104Z,102241.62
2019-04-13T22:04:11.532Z,102242.47
2019-04-13T22:06:40.944Z,102245.48
2019-04-13T22:09:11.019Z,102247.63
2019-04-13T22:11:40.726Z,102248.95
2019-04-13T22:14:12.361Z,102246.34
2019-04-13T22:16:39.190Z,102251.08
2019-04-13T22:19:07.451Z,102243.32
2019-04-13T22:21:35.735Z,102247.63
2019-04-13T22:24:04.994Z,102250.22
2019-04-13T22:26:33.329Z,102242.45
2019-04-13T22:29:09.354Z,102243.72
2019-04-13T22:31:45.941Z,102247.61
2019-04-13T22:34:31.794Z,102244.58
2019-04-13T22:37:00.060Z,102250.60
2019-04-13T22:39:29.193Z,102252.31
2019-04-13T22:41:57.472Z,102251.88
2019-04-13T22:44:37.759Z,102254.05
2019-04-13T22:46:55.715Z,102256.63
2019-04-13T22:49:38.474Z,102258.31
2019-04-13T22:52:25.637Z,102263.48
2019-04-13T22:54:55.995Z,102263.44
2019-04-13T22:57:34.885Z,102262.99
2019-04-13T23:00:17.912Z,102264.28
2019-04-13T23:02:52.360Z,102264.64
2019-04-13T23:05:21.920Z,102266.78
2019-04-13T23:07:50.267Z,102259.86
2019-04-13T23:10:18.520Z,102264.14
2019-04-13T23:12:46.809Z,102262.00
2019-04-13T23:15:23.776Z,102260.31
2019-04-13T23:17:46.201Z,102256.81
2019-04-13T23:20:14.694Z,102256.83
2019-04-13T23:22:43.145Z,102258.19
2019-04-13T23:25:11.469Z,102247.01
2019-04-13T23:27:39.728Z,102253.44
2019-04-13T23:30:09.555Z,102247.41
2019-04-13T23:32:37.778Z,102244.84
2019-04-13T23:35:08.280Z,102244.84
2019-04-13T23:37:36.655Z,102240.96
2019-04-13T23:40:07.147Z,102251.27
2019-04-13T23:42:35.464Z,102249.16
2019-04-13T23:45:13.487Z,102240.56
2019-04-13T23:47:36.121Z,102246.14
2019-04-13T23:50:07.179Z,102243.13
2019-04-13T23:52:35.446Z,102246.50
2019-04-13T23:55:03.842Z,102248.21
2019-04-13T23:57:39.984Z,102248.62
